createdAt,value
2019-03-21T00:01:17.940Z,102576.81
2019-03-21T00:03:50.190Z,102575.92
2019-03-21T00:06:20.839Z,102572.36
2019-03-21T00:08:51.211Z,102565.41
2019-03-21T00:11:56.763Z,102573.84
2019-03-21T00:14:48.360Z,102568.78
2019-03-21T00:17:22.040Z,102575.76
2019-03-21T00:19:52.397Z,102580.48
2019-03-21T00:22:22.742Z,102575.81
2019-03-21T00:24:53.155Z,102580.64
2019-03-21T00:27:23.533Z,102585.66
2019-03-21T00:29:53.898Z,102581.31
2019-03-21T00:32:24.370Z,102582.01
2019-03-21T00:34:54.706Z,102584.41
2019-03-21T00:37:25.145Z,102577.48
2019-03-21T00:39:58.334Z,102592.11
2019-03-21T00:42:28.684Z,102580.31
2019-03-21T00:44:59.039Z,102576.63
2019-03-21T00:47:29.400Z,102579.23
2019-03-21T00:49:59.771Z,102576.08
2019-03-21T00:52:30.124Z,102574.19
2019-03-21T00:55:00.476Z,102575.17
2019-03-21T00:57:30.910Z,102576.61
2019-03-21T01:00:01.257Z,102577.09
2019-03-21T01:02:31.607Z,102578.84
2019-03-21T01:05:01.951Z,102576.88
2019-03-21T01:07:32.320Z,102576.72
2019-03-21T01:10:02.665Z,102579.61
2019-03-21T01:12:33.033Z,102575.69
2019-03-21T01:15:04.056Z,102580.41
2019-03-21T01:17:34.429Z,102585.63
2019-03-21T01:20:08.084Z,102577.28
2019-03-21T01:22:38.432Z,102573.63
2019-03-21T01:25:34.408Z,102570.16
2019-03-21T01:28:04.961Z,102568.63
2019-03-21T01:30:35.351Z,102558.10
2019-03-21T01:33:05.721Z,102556.53
2019-03-21T01:35:36.713Z,102543.97
2019-03-21T01:38:07.076Z,102550.55
2019-03-21T01:40:43.317Z,102546.20
2019-03-21T01:43:13.681Z,102541.16
2019-03-21T01:45:44.092Z,102541.91
2019-03-21T01:48:14.439Z,102540.27
2019-03-21T01:50:44.818Z,102537.88
2019-03-21T01:53:15.181Z,102546.60
2019-03-21T01:55:45.545Z,102551.72
2019-03-21T01:58:15.894Z,102553.59
2019-03-21T02:00:49.352Z,102555.30
2019-03-21T02:03:19.720Z,102545.36
2019-03-21T02:05:51.028Z,102550.16
2019-03-21T02:08:21.398Z,102550.28
2019-03-21T02:10:51.739Z,102550.28
2019-03-21T02:13:22.085Z,102555.16
2019-03-21T02:15:53.431Z,102547.38
2019-03-21T02:18:23.786Z,102551.55
2019-03-21T02:20:54.142Z,102551.41
2019-03-21T02:23:25.257Z,102548.77
2019-03-21T02:25:55.620Z,102543.19
2019-03-21T02:28:25.967Z,102544.21
2019-03-21T02:30:56.320Z,102544.87
2019-03-21T02:33:32.831Z,102533.75
2019-03-21T02:36:06.053Z,102537.54
2019-03-21T02:38:36.399Z,102536.08
2019-03-21T02:41:09.962Z,102539.11
2019-03-21T02:43:40.678Z,102537.20
2019-03-21T02:46:11.051Z,102545.98
2019-03-21T02:48:41.483Z,102538.47
2019-03-21T02:51:12.925Z,102542.66
2019-03-21T02:53:43.717Z,102538.87
2019-03-21T02:56:22.983Z,102542.73
2019-03-21T02:58:53.330Z,102537.86
2019-03-21T03:01:23.674Z,102550.92
2019-03-21T03:03:55.189Z,102542.63
2019-03-21T03:06:25.603Z,102543.17
2019-03-21T03:08:55.986Z,102553.26
2019-03-21T03:11:26.380Z,102544.91
2019-03-21T03:13:56.727Z,102546.20
2019-03-21T03:16:27.087Z,102541.38
2019-03-21T03:18:57.435Z,102546.16
2019-03-21T03:21:27.800Z,102549.84
2019-03-21T03:23:58.164Z,102546.48
2019-03-21T03:26:28.532Z,102547.02
2019-03-21T03:28:58.868Z,102541.66
2019-03-21T03:31:29.222Z,102544.45
2019-03-21T03:33:59.580Z,102539.36
2019-03-21T03:36:29.953Z,102544.63
2019-03-21T03:39:00.382Z,102545.45
2019-03-21T03:41:30.723Z,102548.64
2019-03-21T03:44:01.084Z,102545.12
2019-03-21T03:46:31.489Z,102540.72
2019-03-21T03:49:01.866Z,102546.31
2019-03-21T03:51:32.223Z,102550.59
2019-03-21T03:54:02.563Z,102552.98
2019-03-21T03:56:33.004Z,102556.52
2019-03-21T03:59:06.774Z,102555.81
2019-03-21T04:01:37.158Z,102550.39
2019-03-21T04:04:07.506Z,102550.98
2019-03-21T04:06:37.859Z,102551.25
2019-03-21T04:09:09.125Z,102556.02
2019-03-21T04:11:39.432Z,102554.56
2019-03-21T04:14:09.803Z,102557.77
2019-03-21T04:16:40.147Z,102551.41
2019-03-21T04:19:10.512Z,102561.34
2019-03-21T04:21:40.868Z,102555.42
2019-03-21T04:24:11.226Z,102558.78
2019-03-21T04:26:41.609Z,102554.23
2019-03-21T04:29:11.967Z,102555.00
2019-03-21T04:31:42.337Z,102547.67
2019-03-21T04:34:13.849Z,102552.82
2019-03-21T04:36:45.244Z,102563.55
2019-03-21T04:39:15.739Z,102566.76
2019-03-21T04:41:46.124Z,102568.88
2019-03-21T04:44:16.486Z,102564.11
2019-03-21T04:46:46.820Z,102565.90
2019-03-21T04:49:17.159Z,102565.90
2019-03-21T04:51:47.589Z,102575.39
2019-03-21T04:54:17.938Z,102563.88
2019-03-21T04:56:48.278Z,102569.33
2019-03-21T04:59:18.648Z,102571.80
2019-03-21T05:01:48.990Z,102577.49
2019-03-21T05:04:19.429Z,102576.14
2019-03-21T05:06:49.801Z,102589.83
2019-03-21T05:09:20.310Z,102590.45
2019-03-21T05:11:50.737Z,102587.96
2019-03-21T05:14:21.137Z,102588.88
2019-03-21T05:16:51.486Z,102586.66
2019-03-21T05:19:21.890Z,102592.80
2019-03-21T05:21:52.289Z,102582.38
2019-03-21T05:24:22.685Z,102591.16
2019-03-21T05:26:53.060Z,102585.31
2019-03-21T05:29:23.482Z,102589.22
2019-03-21T05:31:53.864Z,102588.23
2019-03-21T05:34:25.373Z,102595.36
2019-03-21T05:36:55.801Z,102595.18
2019-03-21T05:39:26.189Z,102585.75
2019-03-21T05:41:56.554Z,102586.50
2019-03-21T05:44:30.928Z,102583.42
2019-03-21T05:47:01.493Z,102580.05
2019-03-21T05:49:31.941Z,102598.50
2019-03-21T05:52:02.353Z,102593.23
2019-03-21T05:54:32.725Z,102588.41
2019-03-21T05:57:04.032Z,102593.24
2019-03-21T05:59:34.588Z,102597.53
2019-03-21T06:02:05.081Z,102603.55
2019-03-21T06:04:35.449Z,102607.35
2019-03-21T06:07:09.431Z,102609.63
2019-03-21T06:09:39.777Z,102617.44
2019-03-21T06:12:10.264Z,102630.58
2019-03-21T06:14:46.700Z,102629.71
2019-03-21T06:17:17.099Z,102635.16
2019-03-21T06:19:50.721Z,102635.08
2019-03-21T06:22:30.167Z,102640.72
2019-03-21T06:25:16.098Z,102645.27
2019-03-21T06:27:46.473Z,102644.65
2019-03-21T06:30:16.929Z,102646.13
2019-03-21T06:32:47.708Z,102648.53
2019-03-21T06:35:21.962Z,102643.56
2019-03-21T06:37:53.129Z,102650.30
2019-03-21T06:40:23.510Z,102648.19
2019-03-21T06:42:53.964Z,102649.22
2019-03-21T06:45:24.360Z,102651.70
2019-03-21T06:47:54.929Z,102652.02
2019-03-21T06:50:25.311Z,102651.99
2019-03-21T06:52:55.669Z,102647.81
2019-03-21T06:55:26.035Z,102654.38
2019-03-21T06:57:56.411Z,102653.14
2019-03-21T07:00:26.805Z,102653.94
2019-03-21T07:02:57.371Z,102656.46
2019-03-21T07:05:27.745Z,102653.66
2019-03-21T07:07:58.112Z,102657.42
2019-03-21T07:10:28.514Z,102658.28
2019-03-21T07:12:59.847Z,102661.70
2019-03-21T07:15:30.215Z,102658.31
2019-03-21T07:18:00.564Z,102664.36
2019-03-21T07:20:32.513Z,102670.11
2019-03-21T07:23:02.898Z,102668.73
2019-03-21T07:25:33.274Z,102676.01
2019-03-21T07:28:03.650Z,102676.62
2019-03-21T07:30:34.010Z,102678.17
2019-03-21T07:33:04.625Z,102681.95
2019-03-21T07:35:34.970Z,102685.78
2019-03-21T07:38:05.338Z,102690.97
2019-03-21T07:40:35.705Z,102686.55
2019-03-21T07:43:06.201Z,102686.78
2019-03-21T07:45:36.558Z,102690.52
2019-03-21T07:48:06.931Z,102687.48
2019-03-21T07:50:37.274Z,102691.11
2019-03-21T07:53:07.636Z,102694.23
2019-03-21T07:55:38.005Z,102690.58
2019-03-21T07:58:08.388Z,102693.30
2019-03-21T08:00:38.755Z,102692.00
2019-03-21T08:03:09.129Z,102690.02
2019-03-21T08:05:40.744Z,102692.77
2019-03-21T08:08:11.346Z,102695.23
2019-03-21T08:10:41.743Z,102694.45
2019-03-21T08:13:12.087Z,102703.11
2019-03-21T08:15:42.460Z,102703.25
2019-03-21T08:18:12.829Z,102696.73
2019-03-21T08:20:43.220Z,102707.13
2019-03-21T08:23:13.580Z,102705.41
2019-03-21T08:25:43.947Z,102712.66
2019-03-21T08:28:14.345Z,102717.61
2019-03-21T08:31:03.148Z,102712.87
2019-03-21T08:33:33.525Z,102712.84
2019-03-21T08:36:03.935Z,102706.66
2019-03-21T08:38:34.294Z,102710.90
2019-03-21T08:41:04.885Z,102707.61
2019-03-21T08:43:35.273Z,102709.22
2019-03-21T08:46:05.651Z,102701.20
2019-03-21T08:48:37.167Z,102699.82
2019-03-21T08:51:08.805Z,102694.62
2019-03-21T08:53:39.403Z,102701.45
2019-03-21T08:56:09.853Z,102705.39
2019-03-21T08:58:40.220Z,102706.77
2019-03-21T09:01:10.589Z,102707.23
2019-03-21T09:03:40.982Z,102708.97
2019-03-21T09:06:11.334Z,102702.30
2019-03-21T09:08:41.713Z,102706.03
2019-03-21T09:11:12.096Z,102697.59
2019-03-21T09:13:42.474Z,102703.53
2019-03-21T09:16:12.851Z,102702.52
2019-03-21T09:18:43.224Z,102706.39
2019-03-21T09:21:19.620Z,102705.13
2019-03-21T09:23:45.653Z,102701.08
2019-03-21T09:26:16.126Z,102703.33
2019-03-21T09:28:46.496Z,102705.48
2019-03-21T09:31:16.882Z,102704.13
2019-03-21T09:33:47.263Z,102707.11
2019-03-21T09:36:17.684Z,102699.80
2019-03-21T09:38:48.050Z,102693.44
2019-03-21T09:41:18.430Z,102695.76
2019-03-21T09:43:48.806Z,102690.71
2019-03-21T09:46:19.153Z,102688.34
2019-03-21T09:48:49.529Z,102695.38
2019-03-21T09:51:30.355Z,102699.10
2019-03-21T09:53:51.955Z,102694.08
2019-03-21T09:56:24.088Z,102699.64
2019-03-21T09:58:54.577Z,102691.33
2019-03-21T10:01:24.978Z,102689.07
2019-03-21T10:03:55.335Z,102691.88
2019-03-21T10:06:25.688Z,102688.69
2019-03-21T10:08:56.040Z,102687.45
2019-03-21T10:11:26.392Z,102690.02
2019-03-21T10:13:56.766Z,102691.52
2019-03-21T10:16:27.118Z,102690.01
2019-03-21T10:18:58.906Z,102687.11
2019-03-21T10:21:29.276Z,102693.73
2019-03-21T10:23:59.642Z,102691.16
2019-03-21T10:26:29.999Z,102697.80
2019-03-21T10:29:00.384Z,102699.22
2019-03-21T10:31:30.763Z,102695.28
2019-03-21T10:34:01.130Z,102699.58
2019-03-21T10:36:32.493Z,102700.17
2019-03-21T10:39:04.064Z,102697.94
2019-03-21T10:41:34.424Z,102697.63
2019-03-21T10:44:04.796Z,102700.13
2019-03-21T10:46:35.158Z,102694.67
2019-03-21T10:49:05.541Z,102696.09
2019-03-21T10:51:35.904Z,102692.62
2019-03-21T10:54:06.269Z,102688.34
2019-03-21T10:56:36.653Z,102693.52
2019-03-21T10:59:07.011Z,102693.88
2019-03-21T11:01:37.378Z,102690.58
2019-03-21T11:04:07.751Z,102686.91
2019-03-21T11:06:38.102Z,102679.55
2019-03-21T11:09:09.255Z,102673.44
2019-03-21T11:11:39.630Z,102669.53
2019-03-21T11:14:09.977Z,102663.89
2019-03-21T11:16:40.353Z,102665.09
2019-03-21T11:19:10.847Z,102661.84
2019-03-21T11:21:41.209Z,102658.59
2019-03-21T11:24:11.604Z,102657.59
2019-03-21T11:26:41.975Z,102653.45
2019-03-21T11:29:12.364Z,102649.81
2019-03-21T11:31:42.740Z,102653.55
2019-03-21T11:34:13.097Z,102648.02
2019-03-21T11:36:43.666Z,102646.64
2019-03-21T11:39:14.051Z,102633.69
2019-03-21T11:41:44.431Z,102637.06
2019-03-21T11:44:14.794Z,102632.77
2019-03-21T11:46:45.286Z,102637.76
2019-03-21T11:49:15.831Z,102630.74
2019-03-21T11:51:46.177Z,102637.33
2019-03-21T11:54:17.505Z,102632.84
2019-03-21T11:56:47.871Z,102639.63
2019-03-21T11:59:18.266Z,102636.55
2019-03-21T12:01:48.625Z,102629.47
2019-03-21T12:04:19.977Z,102624.19
2019-03-21T12:06:51.420Z,102618.19
2019-03-21T12:09:21.871Z,102621.88
2019-03-21T12:11:52.307Z,102616.74
2019-03-21T12:14:22.683Z,102615.02
2019-03-21T12:16:53.053Z,102618.13
2019-03-21T12:19:23.410Z,102609.93
2019-03-21T12:21:53.765Z,102614.14
2019-03-21T12:24:24.160Z,102616.42
2019-03-21T12:26:54.541Z,102614.89
2019-03-21T12:29:25.992Z,102614.81
2019-03-21T12:31:56.367Z,102617.89
2019-03-21T12:34:26.759Z,102621.12
2019-03-21T12:36:57.110Z,102616.06
2019-03-21T12:39:28.999Z,102620.60
2019-03-21T12:41:59.786Z,102618.48
2019-03-21T12:44:30.180Z,102619.16
2019-03-21T12:47:00.545Z,102616.45
2019-03-21T12:49:30.925Z,102617.02
2019-03-21T12:52:01.304Z,102612.89
2019-03-21T12:54:31.675Z,102605.44
2019-03-21T12:57:02.048Z,102604.80
2019-03-21T12:59:32.406Z,102608.95
2019-03-21T13:02:02.803Z,102604.77
2019-03-21T13:04:33.542Z,102599.13
2019-03-21T13:07:03.895Z,102603.77
2019-03-21T13:09:34.292Z,102595.34
2019-03-21T13:12:04.683Z,102598.48
2019-03-21T13:14:35.030Z,102598.39
2019-03-21T13:17:05.420Z,102587.09
2019-03-21T13:19:35.778Z,102588.05
2019-03-21T13:22:06.163Z,102579.07
2019-03-21T13:24:38.458Z,102581.70
2019-03-21T13:27:08.837Z,102579.40
2019-03-21T13:29:40.818Z,102583.28
2019-03-21T13:32:12.206Z,102584.36
2019-03-21T13:34:42.621Z,102579.44
2019-03-21T13:37:13.007Z,102582.84
2019-03-21T13:39:43.387Z,102572.19
2019-03-21T13:42:13.734Z,102570.09
2019-03-21T13:44:44.127Z,102574.73
2019-03-21T13:47:14.471Z,102565.32
2019-03-21T13:49:44.825Z,102570.78
2019-03-21T13:52:15.163Z,102561.97
2019-03-21T13:54:45.559Z,102558.61
2019-03-21T13:57:15.959Z,102549.35
2019-03-21T13:59:46.345Z,102551.19
2019-03-21T14:02:16.722Z,102545.37
2019-03-21T14:04:47.278Z,102551.29
2019-03-21T14:07:17.663Z,102549.34
2019-03-21T14:09:48.024Z,102543.66
2019-03-21T14:12:19.481Z,102543.53
2019-03-21T14:14:49.857Z,102542.10
2019-03-21T14:17:22.098Z,102538.77
2019-03-21T14:19:52.309Z,102540.14
2019-03-21T14:22:22.706Z,102537.58
2019-03-21T14:24:53.071Z,102535.25
2019-03-21T14:27:25.956Z,102537.98
2019-03-21T14:30:01.497Z,102535.02
2019-03-21T14:32:30.380Z,102547.60
2019-03-21T14:35:00.796Z,102545.06
2019-03-21T14:37:31.346Z,102551.75
2019-03-21T14:40:01.709Z,102552.98
2019-03-21T14:42:32.143Z,102549.50
2019-03-21T14:45:02.542Z,102543.39
2019-03-21T14:47:36.383Z,102544.87
2019-03-21T14:50:07.635Z,102552.61
2019-03-21T14:52:38.025Z,102550.26
2019-03-21T14:55:09.882Z,102549.27
2019-03-21T14:57:40.275Z,102550.44
2019-03-21T15:00:20.084Z,102554.92
2019-03-21T15:02:50.481Z,102556.03
2019-03-21T15:05:21.887Z,102549.85
2019-03-21T15:07:52.256Z,102550.59
2019-03-21T15:10:23.601Z,102553.67
2019-03-21T15:12:54.097Z,102552.19
2019-03-21T15:15:24.511Z,102550.55
2019-03-21T15:17:55.426Z,102553.79
2019-03-21T15:20:25.831Z,102562.55
2019-03-21T15:22:57.087Z,102558.87
2019-03-21T15:25:27.602Z,102557.88
2019-03-21T15:27:58.042Z,102555.77
2019-03-21T15:30:28.739Z,102556.02
2019-03-21T15:32:59.454Z,102553.94
2019-03-21T15:35:31.743Z,102561.13
2019-03-21T15:38:02.517Z,102565.97
2019-03-21T15:40:33.298Z,102561.40
2019-03-21T15:43:03.673Z,102562.16
2019-03-21T15:45:34.280Z,102558.57
2019-03-21T15:48:04.804Z,102550.69
2019-03-21T15:50:40.133Z,102542.02
2019-03-21T15:53:10.707Z,102541.11
2019-03-21T15:55:41.127Z,102546.42
2019-03-21T15:58:11.503Z,102547.30
2019-03-21T16:00:42.718Z,102547.84
2019-03-21T16:03:13.194Z,102547.96
2019-03-21T16:05:44.618Z,102547.59
2019-03-21T16:08:15.508Z,102538.92
2019-03-21T16:10:45.997Z,102543.02
2019-03-21T16:13:16.453Z,102540.29
2019-03-21T16:15:46.914Z,102545.24
2019-03-21T16:18:17.326Z,102537.45
2019-03-21T16:20:47.699Z,102535.47
2019-03-21T16:23:18.103Z,102533.73
2019-03-21T16:25:48.800Z,102531.37
2019-03-21T16:28:20.307Z,102533.98
2019-03-21T16:30:51.232Z,102537.94
2019-03-21T16:33:21.669Z,102538.31
2019-03-21T16:35:52.201Z,102535.09
2019-03-21T16:38:22.670Z,102539.42
2019-03-21T16:40:53.045Z,102540.53
2019-03-21T16:43:23.396Z,102535.59
2019-03-21T16:45:55.253Z,102539.80
2019-03-21T16:48:25.683Z,102538.19
2019-03-21T16:50:57.400Z,102535.47
2019-03-21T16:53:27.764Z,102534.97
2019-03-21T16:55:58.155Z,102540.16
2019-03-21T16:58:28.580Z,102537.56
2019-03-21T17:00:59.194Z,102536.16
2019-03-21T17:03:31.189Z,102533.86
2019-03-21T17:06:01.655Z,102542.98
2019-03-21T17:08:32.197Z,102542.11
2019-03-21T17:11:02.816Z,102540.41
2019-03-21T17:13:33.160Z,102536.41
2019-03-21T17:16:05.698Z,102551.95
2019-03-21T17:18:35.631Z,102554.75
2019-03-21T17:21:06.001Z,102550.82
2019-03-21T17:23:36.409Z,102555.52
2019-03-21T17:26:06.851Z,102558.86
2019-03-21T17:28:37.209Z,102559.39
2019-03-21T17:31:07.589Z,102552.82
2019-03-21T17:33:39.588Z,102554.56
2019-03-21T17:36:09.964Z,102555.32
2019-03-21T17:38:40.331Z,102552.45
2019-03-21T17:41:10.714Z,102552.45
2019-03-21T17:43:41.089Z,102550.98
2019-03-21T17:46:11.498Z,102557.03
2019-03-21T17:48:41.969Z,102556.06
2019-03-21T17:51:12.335Z,102565.70
2019-03-21T17:53:42.748Z,102567.58
2019-03-21T17:56:14.797Z,102568.80
2019-03-21T17:58:45.175Z,102562.59
2019-03-21T18:01:17.148Z,102574.09
2019-03-21T18:03:47.541Z,102571.63
2019-03-21T18:06:18.066Z,102571.47
2019-03-21T18:08:49.026Z,102578.67
2019-03-21T18:11:22.225Z,102575.57
2019-03-21T18:13:52.832Z,102581.89
2019-03-21T18:16:23.751Z,102581.77
2019-03-21T18:18:55.822Z,102580.52
2019-03-21T18:21:27.088Z,102583.71
2019-03-21T18:23:57.777Z,102581.84
2019-03-21T18:26:29.792Z,102582.00
2019-03-21T18:29:00.162Z,102575.20
2019-03-21T18:31:30.535Z,102575.55
2019-03-21T18:34:00.907Z,102581.66
2019-03-21T18:36:31.462Z,102577.20
2019-03-21T18:39:01.854Z,102577.69
2019-03-21T18:41:32.588Z,102578.45
2019-03-21T18:44:02.945Z,102571.91
2019-03-21T18:46:33.133Z,102580.91
2019-03-21T18:49:03.533Z,102583.33
2019-03-21T18:51:33.932Z,102584.39
2019-03-21T18:54:04.393Z,102581.67
2019-03-21T18:56:35.887Z,102578.46
2019-03-21T18:59:06.268Z,102586.61
2019-03-21T19:01:42.035Z,102584.52
2019-03-21T19:04:12.515Z,102582.78
2019-03-21T19:06:42.932Z,102585.63
2019-03-21T19:09:16.807Z,102576.48
2019-03-21T19:11:47.509Z,102586.23
2019-03-21T19:14:18.225Z,102582.55
2019-03-21T19:16:48.615Z,102589.23
2019-03-21T19:19:19.131Z,102586.61
2019-03-21T19:21:49.555Z,102582.71
2019-03-21T19:24:20.295Z,102585.20
2019-03-21T19:26:50.938Z,102583.25
2019-03-21T19:29:21.598Z,102592.11
2019-03-21T19:31:52.151Z,102585.09
2019-03-21T19:34:23.598Z,102590.97
2019-03-21T19:36:54.077Z,102584.30
2019-03-21T19:39:24.811Z,102585.39
2019-03-21T19:41:55.257Z,102584.38
2019-03-21T19:44:25.751Z,102570.30
2019-03-21T19:46:57.521Z,102574.93
2019-03-21T19:49:28.156Z,102572.58
2019-03-21T19:51:59.041Z,102563.30
2019-03-21T19:54:29.718Z,102566.25
2019-03-21T19:57:00.232Z,102568.09
2019-03-21T19:59:31.216Z,102568.97
2019-03-21T20:02:02.031Z,102570.57
2019-03-21T20:04:34.302Z,102569.34
2019-03-21T20:07:05.083Z,102565.49
2019-03-21T20:09:36.255Z,102559.55
2019-03-21T20:12:06.654Z,102553.00
2019-03-21T20:14:37.018Z,102555.72
2019-03-21T20:17:07.781Z,102556.22
2019-03-21T20:19:39.874Z,102560.42
2019-03-21T20:22:10.313Z,102565.37
2019-03-21T20:24:41.221Z,102563.89
2019-03-21T20:27:12.824Z,102565.37
2019-03-21T20:29:43.350Z,102563.06
2019-03-21T20:32:20.426Z,102565.74
2019-03-21T20:34:46.887Z,102568.59
2019-03-21T20:37:18.931Z,102570.82
2019-03-21T20:39:49.931Z,102564.88
2019-03-21T20:42:20.474Z,102568.75
2019-03-21T20:44:52.006Z,102573.55
2019-03-21T20:47:22.390Z,102569.37
2019-03-21T20:49:52.850Z,102571.47
2019-03-21T20:52:23.305Z,102568.26
2019-03-21T20:54:53.704Z,102573.30
2019-03-21T20:57:24.571Z,102570.33
2019-03-21T20:59:55.384Z,102572.19
2019-03-21T21:02:25.795Z,102576.02
2019-03-21T21:04:56.578Z,102568.26
2019-03-21T21:07:27.134Z,102568.59
2019-03-21T21:09:57.607Z,102574.94
2019-03-21T21:12:27.975Z,102576.67
2019-03-21T21:14:58.390Z,102574.45
2019-03-21T21:17:28.846Z,102573.67
2019-03-21T21:19:59.382Z,102575.41
2019-03-21T21:22:31.626Z,102574.41
2019-03-21T21:25:02.014Z,102575.89
2019-03-21T21:27:32.403Z,102571.10
2019-03-21T21:30:03.352Z,102575.41
2019-03-21T21:32:34.046Z,102582.09
2019-03-21T21:35:06.562Z,102582.24
2019-03-21T21:37:37.909Z,102569.13
2019-03-21T21:40:09.800Z,102570.86
2019-03-21T21:42:40.320Z,102573.70
2019-03-21T21:45:13.119Z,102577.38
2019-03-21T21:47:43.563Z,102577.51
2019-03-21T21:50:16.168Z,102581.22
2019-03-21T21:52:46.560Z,102583.69
2019-03-21T21:55:16.949Z,102580.47
2019-03-21T21:57:47.324Z,102578.86
2019-03-21T22:00:19.142Z,102578.00
2019-03-21T22:02:49.633Z,102576.77
2019-03-21T22:05:20.041Z,102572.67
2019-03-21T22:07:51.964Z,102577.00
2019-03-21T22:10:22.291Z,102570.08
2019-03-21T22:12:52.780Z,102575.40
2019-03-21T22:15:23.161Z,102577.50
2019-03-21T22:17:53.541Z,102582.33
2019-03-21T22:20:24.881Z,102578.00
2019-03-21T22:22:55.253Z,102564.25
2019-03-21T22:25:25.608Z,102568.08
2019-03-21T22:27:55.980Z,102567.72
2019-03-21T22:30:26.369Z,102571.43
2019-03-21T22:32:56.707Z,102574.89
2019-03-21T22:35:28.714Z,102569.33
2019-03-21T22:37:59.106Z,102569.20
2019-03-21T22:40:30.548Z,102568.58
2019-03-21T22:43:00.902Z,102565.37
2019-03-21T22:45:32.158Z,102562.19
2019-03-21T22:48:02.537Z,102569.98
2019-03-21T22:50:32.912Z,102563.73
2019-03-21T22:53:03.296Z,102561.73
2019-03-21T22:55:33.660Z,102573.36
2019-03-21T22:58:04.031Z,102569.17
2019-03-21T23:00:42.405Z,102564.86
2019-03-21T23:03:14.014Z,102568.13
2019-03-21T23:05:44.394Z,102564.48
2019-03-21T23:08:14.776Z,102563.11
2019-03-21T23:10:45.344Z,102571.38
2019-03-21T23:13:15.750Z,102565.81
2019-03-21T23:15:46.141Z,102561.31
2019-03-21T23:18:16.650Z,102553.53
2019-03-21T23:20:47.023Z,102554.34
2019-03-21T23:23:17.405Z,102545.83
2019-03-21T23:25:49.032Z,102552.22
2019-03-21T23:28:19.431Z,102549.52
2019-03-21T23:30:49.826Z,102548.42
2019-03-21T23:33:20.247Z,102556.75
2019-03-21T23:35:50.652Z,102554.58
2019-03-21T23:38:21.033Z,102549.00
2019-03-21T23:40:51.407Z,102549.25
2019-03-21T23:43:21.822Z,102557.17
2019-03-21T23:45:52.201Z,102554.16
2019-03-21T23:48:22.606Z,102556.13
2019-03-21T23:50:52.983Z,102548.80
2019-03-21T23:53:23.407Z,102551.06
2019-03-21T23:55:53.761Z,102547.25
2019-03-21T23:58:24.141Z,102546.55
